createdAt,value
2019-04-07T00:01:48.679Z,8.52
2019-04-07T00:04:18.160Z,8.43
2019-04-07T00:06:47.675Z,8.35
2019-04-07T00:09:17.656Z,8.30
2019-04-07T00:11:46.941Z,8.25
2019-04-07T00:14:16.734Z,8.19
2019-04-07T00:16:45.994Z,8.12
2019-04-07T00:19:15.668Z,8.07
2019-04-07T00:21:45.557Z,8.05
2019-04-07T00:24:15.049Z,8.04
2019-04-07T00:26:44.809Z,8.07
2019-04-07T00:29:14.461Z,8.12
2019-04-07T00:31:43.703Z,8.14
2019-04-07T00:34:12.893Z,8.06
2019-04-07T00:36:42.130Z,7.95
2019-04-07T00:39:11.496Z,7.87
2019-04-07T00:41:40.656Z,7.76
2019-04-07T00:44:10.005Z,7.70
2019-04-07T00:46:39.794Z,7.67
2019-04-07T00:49:09.483Z,7.67
2019-04-07T00:51:38.757Z,7.67
2019-04-07T00:54:08.437Z,7.63
2019-04-07T00:56:37.690Z,7.65
2019-04-07T00:59:06.852Z,7.63
2019-04-07T01:01:36.070Z,7.51
2019-04-07T01:04:05.659Z,7.38
2019-04-07T01:06:34.892Z,7.27
2019-04-07T01:09:05.124Z,7.22
2019-04-07T01:11:34.535Z,7.20
2019-04-07T01:14:03.727Z,7.07
2019-04-07T01:16:32.943Z,6.98
2019-04-07T01:19:02.434Z,7.01
2019-04-07T01:21:31.589Z,7.02
2019-04-07T01:24:00.838Z,7.01
2019-04-07T01:26:30.005Z,6.99
2019-04-07T01:28:59.289Z,6.95
2019-04-07T01:31:28.610Z,6.80
2019-04-07T01:33:58.685Z,6.71
2019-04-07T01:36:27.996Z,6.73
2019-04-07T01:38:57.549Z,6.74
2019-04-07T01:41:46.325Z,6.71
2019-04-07T01:44:40.961Z,6.62
2019-04-07T01:47:32.101Z,6.50
2019-04-07T01:50:21.092Z,6.45
2019-04-07T01:53:09.163Z,6.39
2019-04-07T01:55:54.196Z,6.33
2019-04-07T01:58:54.370Z,6.28
2019-04-07T02:01:45.266Z,6.22
2019-04-07T02:04:32.520Z,6.16
2019-04-07T02:07:20.626Z,6.09
2019-04-07T02:10:13.638Z,6.07
2019-04-07T02:12:58.261Z,6.04
2019-04-07T02:15:59.097Z,6.03
2019-04-07T02:18:56.359Z,6.00
2019-04-07T02:21:33.774Z,6.01
2019-04-07T02:24:30.921Z,6.02
2019-04-07T02:27:25.647Z,5.98
2019-04-07T02:30:19.988Z,5.95
2019-04-07T02:33:02.396Z,5.92
2019-04-07T02:35:53.617Z,5.86
2019-04-07T02:38:31.660Z,5.82
2019-04-07T02:41:32.496Z,5.84
2019-04-07T02:44:23.907Z,5.85
2019-04-07T02:47:00.790Z,5.79
2019-04-07T02:49:54.856Z,5.90
2019-04-07T02:52:35.701Z,5.88
2019-04-07T02:55:24.437Z,5.80
2019-04-07T02:58:15.814Z,5.76
2019-04-07T03:01:07.035Z,5.77
2019-04-07T03:03:42.890Z,5.85
2019-04-07T03:06:34.621Z,5.92
2019-04-07T03:09:07.647Z,5.94
2019-04-07T03:12:02.865Z,5.91
2019-04-07T03:14:53.016Z,5.85
2019-04-07T03:17:37.470Z,5.90
2019-04-07T03:20:25.194Z,5.93
2019-04-07T03:23:12.904Z,5.85
2019-04-07T03:26:02.276Z,5.75
2019-04-07T03:28:47.540Z,5.68
2019-04-07T03:31:39.420Z,5.66
2019-04-07T03:34:33.494Z,5.72
2019-04-07T03:37:33.332Z,5.79
2019-04-07T03:40:08.850Z,5.90
2019-04-07T03:42:51.645Z,5.99
2019-04-07T03:45:49.933Z,6.10
2019-04-07T03:48:32.772Z,6.12
2019-04-07T03:51:13.872Z,6.22
2019-04-07T03:54:21.114Z,6.27
2019-04-07T03:57:15.109Z,6.25
2019-04-07T04:00:12.576Z,6.24
2019-04-07T04:02:57.248Z,6.37
2019-04-07T04:05:57.422Z,6.46
2019-04-07T04:08:44.375Z,6.46
2019-04-07T04:11:36.155Z,6.50
2019-04-07T04:14:13.374Z,6.54
2019-04-07T04:16:45.808Z,6.51
2019-04-07T04:19:15.018Z,6.58
2019-04-07T04:21:44.544Z,6.60
2019-04-07T04:24:14.378Z,6.64
2019-04-07T04:26:44.097Z,6.63
2019-04-07T04:29:13.432Z,6.64
2019-04-07T04:31:43.430Z,6.69
2019-04-07T04:34:12.604Z,6.72
2019-04-07T04:36:41.863Z,6.72
2019-04-07T04:39:12.046Z,6.61
2019-04-07T04:41:42.585Z,6.49
2019-04-07T04:44:12.276Z,6.42
2019-04-07T04:46:42.620Z,6.35
2019-04-07T04:49:11.946Z,6.30
2019-04-07T04:51:42.441Z,6.25
2019-04-07T04:54:12.608Z,6.22
2019-04-07T04:56:42.411Z,6.23
2019-04-07T04:59:12.859Z,6.19
2019-04-07T05:01:42.301Z,6.23
2019-04-07T05:04:11.532Z,6.28
2019-04-07T05:06:41.310Z,6.29
2019-04-07T05:09:10.562Z,6.38
2019-04-07T05:11:39.793Z,6.40
2019-04-07T05:14:09.017Z,6.47
2019-04-07T05:16:38.833Z,6.52
2019-04-07T05:19:08.750Z,6.61
2019-04-07T05:21:37.916Z,6.68
2019-04-07T05:24:07.094Z,6.62
2019-04-07T05:26:36.587Z,6.76
2019-04-07T05:29:06.018Z,6.84
2019-04-07T05:31:37.048Z,6.85
2019-04-07T05:34:06.657Z,6.84
2019-04-07T05:36:35.946Z,6.83
2019-04-07T05:39:07.476Z,6.88
2019-04-07T05:41:37.223Z,6.97
2019-04-07T05:44:07.710Z,7.02
2019-04-07T05:46:40.145Z,7.02
2019-04-07T05:49:07.811Z,7.09
2019-04-07T05:51:37.116Z,7.14
2019-04-07T05:54:07.055Z,7.14
2019-04-07T05:56:36.895Z,7.24
2019-04-07T05:59:09.968Z,7.32
2019-04-07T06:01:37.135Z,7.38
2019-04-07T06:04:06.708Z,7.56
2019-04-07T06:06:37.034Z,7.78
2019-04-07T06:09:08.341Z,7.98
2019-04-07T06:11:41.174Z,8.19
2019-04-07T06:14:11.533Z,8.40
2019-04-07T06:16:42.808Z,8.46
2019-04-07T06:19:12.581Z,8.43
2019-04-07T06:21:46.132Z,8.44
2019-04-07T06:24:13.522Z,8.46
2019-04-07T06:26:47.644Z,8.56
2019-04-07T06:29:13.920Z,8.57
2019-04-07T06:31:43.580Z,8.57
2019-04-07T06:34:12.816Z,8.68
2019-04-07T06:36:43.033Z,8.80
2019-04-07T06:39:13.560Z,9.01
2019-04-07T06:41:43.319Z,9.18
2019-04-07T06:44:16.551Z,9.32
2019-04-07T06:47:05.184Z,9.44
2019-04-07T06:49:56.393Z,9.64
2019-04-07T06:52:41.793Z,9.86
2019-04-07T06:55:32.709Z,9.94
2019-04-07T06:58:32.106Z,9.95
2019-04-07T07:01:20.270Z,10.24
2019-04-07T07:04:13.159Z,10.82
2019-04-07T07:07:00.628Z,11.01
2019-04-07T07:09:54.810Z,11.24
2019-04-07T07:12:50.714Z,11.45
2019-04-07T07:15:38.507Z,11.61
2019-04-07T07:18:32.318Z,11.90
2019-04-07T07:21:24.547Z,12.26
2019-04-07T07:23:53.987Z,12.40
2019-04-07T07:26:24.497Z,12.53
2019-04-07T07:28:54.324Z,13.00
2019-04-07T07:31:25.475Z,13.37
2019-04-07T07:33:54.911Z,13.39
2019-04-07T07:36:24.208Z,13.06
2019-04-07T07:38:59.193Z,13.07
2019-04-07T07:41:25.373Z,13.48
2019-04-07T07:43:54.966Z,13.86
2019-04-07T07:46:25.733Z,14.38
2019-04-07T07:48:59.000Z,14.98
2019-04-07T07:51:26.755Z,14.72
2019-04-07T07:53:58.573Z,15.08
2019-04-07T07:56:26.920Z,15.49
2019-04-07T07:59:00.861Z,15.94
2019-04-07T08:01:29.934Z,15.86
2019-04-07T08:03:59.742Z,16.56
2019-04-07T08:06:29.472Z,16.95
2019-04-07T08:09:09.950Z,16.88
2019-04-07T08:11:31.533Z,17.07
2019-04-07T08:14:01.249Z,16.68
2019-04-07T08:16:31.511Z,16.55
2019-04-07T08:19:01.501Z,16.08
2019-04-07T08:21:31.584Z,15.90
2019-04-07T08:24:01.426Z,16.54
2019-04-07T08:26:31.729Z,16.62
2019-04-07T08:29:03.252Z,16.72
2019-04-07T08:31:32.688Z,16.97
2019-04-07T08:34:02.347Z,17.19
2019-04-07T08:36:31.577Z,17.20
2019-04-07T08:39:00.766Z,17.39
2019-04-07T08:41:33.473Z,17.28
2019-04-07T08:44:02.958Z,17.45
2019-04-07T08:46:39.426Z,17.23
2019-04-07T08:49:03.811Z,17.69
2019-04-07T08:51:33.655Z,18.10
2019-04-07T08:54:04.536Z,18.57
2019-04-07T08:56:34.157Z,18.90
2019-04-07T08:59:03.875Z,19.13
2019-04-07T09:01:33.130Z,19.38
2019-04-07T09:04:02.293Z,19.57
2019-04-07T09:06:31.620Z,19.00
2019-04-07T09:09:01.501Z,19.12
2019-04-07T09:11:32.107Z,18.97
2019-04-07T09:14:02.130Z,19.49
2019-04-07T09:16:37.018Z,19.30
2019-04-07T09:19:21.352Z,19.60
2019-04-07T09:22:10.539Z,19.68
2019-04-07T09:25:18.193Z,20.29
2019-04-07T09:28:10.062Z,20.74
2019-04-07T09:30:53.645Z,20.17
2019-04-07T09:33:48.934Z,20.59
2019-04-07T09:36:34.213Z,20.16
2019-04-07T09:39:23.991Z,19.83
2019-04-07T09:42:15.894Z,19.27
2019-04-07T09:45:09.753Z,19.21
2019-04-07T09:48:04.912Z,20.35
2019-04-07T09:51:04.157Z,21.11
2019-04-07T09:53:43.832Z,21.74
2019-04-07T09:56:27.242Z,18.74
2019-04-07T09:59:19.065Z,18.20
2019-04-07T10:02:06.289Z,19.22
2019-04-07T10:05:00.555Z,20.11
2019-04-07T10:07:45.746Z,20.31
2019-04-07T10:10:28.239Z,19.99
2019-04-07T10:13:05.502Z,20.40
2019-04-07T10:15:57.405Z,20.63
2019-04-07T10:18:46.006Z,21.30
2019-04-07T10:21:32.864Z,21.13
2019-04-07T10:24:27.298Z,21.39
2019-04-07T10:27:18.780Z,20.79
2019-04-07T10:29:54.589Z,21.37
2019-04-07T10:32:35.605Z,20.55
2019-04-07T10:35:24.138Z,20.86
2019-04-07T10:38:16.221Z,21.41
2019-04-07T10:41:19.494Z,22.85
2019-04-07T10:44:00.050Z,22.38
2019-04-07T10:47:00.449Z,22.41
2019-04-07T10:49:59.281Z,22.75
2019-04-07T10:52:33.938Z,22.69
2019-04-07T10:55:35.133Z,21.84
2019-04-07T10:58:18.911Z,22.11
2019-04-07T11:01:06.437Z,22.06
2019-04-07T11:03:54.848Z,21.34
2019-04-07T11:06:43.955Z,22.08
2019-04-07T11:09:31.989Z,22.62
2019-04-07T11:12:18.756Z,22.68
2019-04-07T11:15:25.900Z,23.90
2019-04-07T11:18:13.630Z,24.45
2019-04-07T11:20:58.717Z,24.59
2019-04-07T11:23:41.843Z,23.64
2019-04-07T11:26:48.563Z,24.63
2019-04-07T11:29:45.605Z,25.44
2019-04-07T11:32:35.823Z,24.73
2019-04-07T11:35:13.756Z,22.76
2019-04-07T11:38:02.702Z,22.60
2019-04-07T11:40:50.176Z,22.03
2019-04-07T11:43:44.449Z,21.70
2019-04-07T11:46:19.826Z,21.39
2019-04-07T11:49:10.814Z,20.69
2019-04-07T11:51:46.941Z,20.80
2019-04-07T11:54:36.963Z,20.44
2019-04-07T11:57:31.228Z,21.23
2019-04-07T12:00:19.564Z,21.42
2019-04-07T12:03:05.283Z,22.29
2019-04-07T12:05:57.985Z,22.99
2019-04-07T12:09:02.159Z,22.60
2019-04-07T12:11:49.401Z,22.76
2019-04-07T12:14:52.091Z,22.14
2019-04-07T12:17:45.921Z,22.02
2019-04-07T12:20:35.425Z,22.65
2019-04-07T12:23:23.357Z,21.44
2019-04-07T12:26:04.422Z,21.10
2019-04-07T12:28:56.089Z,21.29
2019-04-07T12:31:40.400Z,22.15
2019-04-07T12:34:34.664Z,21.80
2019-04-07T12:37:17.495Z,21.77
2019-04-07T12:40:05.424Z,22.55
2019-04-07T12:42:53.431Z,21.94
2019-04-07T12:45:39.168Z,21.98
2019-04-07T12:48:37.895Z,21.63
2019-04-07T12:51:24.786Z,22.16
2019-04-07T12:54:05.332Z,21.31
2019-04-07T12:56:44.562Z,20.90
2019-04-07T12:59:37.513Z,21.21
2019-04-07T13:02:20.068Z,20.91
2019-04-07T13:05:00.414Z,20.47
2019-04-07T13:07:53.161Z,18.85
2019-04-07T13:10:47.270Z,19.23
2019-04-07T13:13:40.689Z,19.48
2019-04-07T13:16:48.037Z,19.16
2019-04-07T13:19:41.819Z,19.07
2019-04-07T13:22:19.277Z,20.37
2019-04-07T13:25:06.402Z,20.59
2019-04-07T13:28:12.728Z,20.53
2019-04-07T13:31:01.771Z,20.30
2019-04-07T13:34:01.674Z,20.04
2019-04-07T13:36:59.000Z,19.91
2019-04-07T13:39:40.719Z,19.72
2019-04-07T13:42:32.583Z,19.51
2019-04-07T13:45:20.524Z,19.37
2019-04-07T13:48:13.571Z,19.52
2019-04-07T13:51:15.505Z,19.65
2019-04-07T13:54:05.611Z,19.42
2019-04-07T13:56:52.206Z,19.35
2019-04-07T13:59:50.028Z,19.47
2019-04-07T14:02:38.830Z,19.40
2019-04-07T14:05:38.860Z,19.32
2019-04-07T14:08:38.309Z,19.25
2019-04-07T14:11:58.085Z,19.10
2019-04-07T14:14:28.946Z,18.77
2019-04-07T14:17:22.960Z,18.78
2019-04-07T14:20:17.179Z,18.78
2019-04-07T14:23:12.163Z,18.74
2019-04-07T14:26:12.781Z,18.76
2019-04-07T14:28:50.084Z,18.60
2019-04-07T14:31:53.428Z,18.47
2019-04-07T14:34:41.144Z,18.53
2019-04-07T14:37:20.365Z,18.39
2019-04-07T14:40:07.199Z,18.43
2019-04-07T14:42:51.822Z,18.48
2019-04-07T14:45:40.640Z,18.39
2019-04-07T14:48:45.647Z,18.46
2019-04-07T14:51:42.798Z,18.43
2019-04-07T14:54:34.597Z,18.50
2019-04-07T14:57:20.117Z,18.27
2019-04-07T15:00:17.333Z,18.16
2019-04-07T15:02:49.769Z,18.22
2019-04-07T15:05:25.310Z,18.32
2019-04-07T15:08:14.074Z,18.44
2019-04-07T15:10:52.703Z,18.43
2019-04-07T15:13:28.101Z,18.50
2019-04-07T15:16:01.086Z,18.46
2019-04-07T15:18:30.267Z,18.50
2019-04-07T15:20:59.523Z,18.50
2019-04-07T15:23:30.964Z,18.55
2019-04-07T15:26:00.182Z,18.29
2019-04-07T15:28:30.674Z,18.21
2019-04-07T15:31:00.916Z,18.04
2019-04-07T15:33:33.929Z,18.10
2019-04-07T15:36:04.103Z,17.94
2019-04-07T15:38:34.524Z,17.96
2019-04-07T15:41:07.626Z,17.95
2019-04-07T15:43:35.285Z,18.04
2019-04-07T15:46:05.393Z,18.11
2019-04-07T15:48:36.549Z,18.18
2019-04-07T15:51:05.796Z,18.36
2019-04-07T15:53:35.137Z,18.33
2019-04-07T15:56:06.571Z,18.41
2019-04-07T15:58:35.333Z,18.10
2019-04-07T16:01:08.650Z,17.91
2019-04-07T16:03:36.762Z,17.96
2019-04-07T16:06:06.085Z,18.02
2019-04-07T16:08:38.296Z,17.54
2019-04-07T16:11:08.034Z,17.42
2019-04-07T16:13:39.089Z,17.48
2019-04-07T16:16:08.521Z,17.47
2019-04-07T16:18:42.940Z,17.45
2019-04-07T16:21:21.661Z,17.47
2019-04-07T16:23:54.035Z,17.42
2019-04-07T16:26:35.893Z,17.27
2019-04-07T16:29:07.776Z,17.16
2019-04-07T16:31:36.555Z,17.21
2019-04-07T16:34:07.731Z,17.16
2019-04-07T16:36:36.656Z,17.14
2019-04-07T16:39:09.582Z,17.19
2019-04-07T16:41:39.290Z,17.17
2019-04-07T16:44:10.568Z,17.08
2019-04-07T16:46:40.641Z,17.13
2019-04-07T16:49:13.214Z,17.13
2019-04-07T16:51:40.960Z,17.22
2019-04-07T16:54:11.406Z,17.18
2019-04-07T16:56:41.407Z,17.01
2019-04-07T16:59:10.651Z,16.98
2019-04-07T17:01:39.981Z,16.84
2019-04-07T17:04:09.473Z,16.74
2019-04-07T17:06:39.027Z,16.81
2019-04-07T17:09:17.769Z,16.80
2019-04-07T17:11:47.560Z,16.75
2019-04-07T17:14:16.775Z,16.74
2019-04-07T17:16:45.978Z,16.78
2019-04-07T17:19:16.179Z,16.65
2019-04-07T17:21:45.440Z,16.51
2019-04-07T17:24:14.734Z,16.45
2019-04-07T17:26:43.948Z,16.42
2019-04-07T17:29:17.073Z,16.36
2019-04-07T17:31:45.579Z,16.30
2019-04-07T17:34:15.619Z,16.23
2019-04-07T17:36:48.530Z,16.16
2019-04-07T17:39:38.487Z,16.09
2019-04-07T17:42:12.206Z,16.05
2019-04-07T17:45:13.127Z,15.99
2019-04-07T17:48:02.877Z,15.94
2019-04-07T17:50:49.585Z,15.89
2019-04-07T17:53:45.350Z,15.84
2019-04-07T17:56:34.530Z,15.80
2019-04-07T17:59:19.704Z,15.72
2019-04-07T18:02:10.894Z,15.64
2019-04-07T18:04:53.565Z,15.59
2019-04-07T18:07:39.477Z,15.53
2019-04-07T18:10:23.766Z,15.48
2019-04-07T18:13:21.726Z,15.44
2019-04-07T18:16:07.079Z,15.37
2019-04-07T18:18:56.208Z,15.32
2019-04-07T18:21:47.228Z,15.28
2019-04-07T18:24:38.571Z,15.27
2019-04-07T18:27:23.273Z,15.22
2019-04-07T18:30:14.761Z,15.17
2019-04-07T18:32:58.643Z,15.11
2019-04-07T18:35:47.043Z,15.08
2019-04-07T18:38:34.573Z,15.07
2019-04-07T18:41:19.782Z,15.02
2019-04-07T18:44:08.950Z,15.03
2019-04-07T18:46:57.258Z,14.98
2019-04-07T18:49:35.455Z,14.95
2019-04-07T18:52:23.019Z,14.97
2019-04-07T18:55:10.973Z,14.89
2019-04-07T18:57:58.521Z,14.84
2019-04-07T19:00:45.609Z,14.79
2019-04-07T19:03:40.629Z,14.72
2019-04-07T19:06:28.780Z,14.56
2019-04-07T19:09:35.732Z,14.56
2019-04-07T19:12:23.129Z,14.53
2019-04-07T19:15:17.747Z,14.38
2019-04-07T19:18:08.671Z,14.21
2019-04-07T19:20:57.735Z,14.02
2019-04-07T19:23:36.245Z,13.86
2019-04-07T19:26:34.704Z,13.84
2019-04-07T19:29:26.288Z,13.72
2019-04-07T19:32:29.581Z,13.55
2019-04-07T19:35:11.650Z,13.43
2019-04-07T19:38:06.810Z,13.30
2019-04-07T19:40:49.340Z,13.23
2019-04-07T19:43:37.123Z,13.16
2019-04-07T19:46:28.807Z,13.12
2019-04-07T19:49:27.534Z,13.05
2019-04-07T19:52:14.823Z,12.92
2019-04-07T19:55:03.692Z,12.80
2019-04-07T19:57:50.982Z,12.72
2019-04-07T20:00:56.765Z,12.69
2019-04-07T20:03:37.789Z,12.67
2019-04-07T20:06:23.135Z,12.62
2019-04-07T20:09:11.179Z,12.60
2019-04-07T20:12:00.541Z,12.49
2019-04-07T20:14:55.234Z,12.45
2019-04-07T20:17:32.316Z,12.43
2019-04-07T20:20:19.535Z,12.44
2019-04-07T20:23:16.060Z,12.31
2019-04-07T20:26:13.583Z,12.21
2019-04-07T20:28:48.782Z,12.14
2019-04-07T20:31:38.633Z,12.10
2019-04-07T20:34:21.077Z,12.03
2019-04-07T20:37:23.803Z,12.00
2019-04-07T20:40:09.135Z,11.99
2019-04-07T20:42:48.451Z,11.94
2019-04-07T20:45:33.462Z,11.91
2019-04-07T20:48:33.358Z,11.91
2019-04-07T20:51:19.086Z,11.83
2019-04-07T20:53:55.691Z,11.82
2019-04-07T20:56:44.955Z,11.84
2019-04-07T20:59:31.404Z,11.84
2019-04-07T21:02:35.027Z,11.75
2019-04-07T21:05:22.938Z,11.67
2019-04-07T21:08:02.700Z,11.64
2019-04-07T21:10:49.720Z,11.62
2019-04-07T21:13:37.494Z,11.56
2019-04-07T21:16:28.260Z,11.58
2019-04-07T21:19:06.789Z,11.54
2019-04-07T21:21:53.762Z,11.53
2019-04-07T21:24:45.540Z,11.47
2019-04-07T21:27:43.967Z,11.43
2019-04-07T21:30:42.946Z,11.42
2019-04-07T21:33:44.197Z,11.41
2019-04-07T21:36:37.625Z,11.44
2019-04-07T21:39:16.536Z,11.47
2019-04-07T21:42:21.843Z,11.53
2019-04-07T21:45:10.407Z,11.52
2019-04-07T21:47:46.095Z,11.58
2019-04-07T21:50:28.194Z,11.54
2019-04-07T21:53:04.799Z,11.43
2019-04-07T21:55:53.282Z,11.33
2019-04-07T21:58:54.021Z,11.33
2019-04-07T22:01:50.827Z,11.33
2019-04-07T22:04:34.122Z,11.32
2019-04-07T22:07:22.309Z,11.20
2019-04-07T22:09:54.659Z,11.25
2019-04-07T22:12:28.033Z,11.21
2019-04-07T22:14:55.665Z,11.20
2019-04-07T22:17:24.901Z,11.18
2019-04-07T22:19:54.326Z,11.20
2019-04-07T22:22:26.583Z,11.20
2019-04-07T22:24:55.948Z,11.19
2019-04-07T22:27:27.251Z,11.19
2019-04-07T22:29:56.681Z,11.18
2019-04-07T22:32:26.786Z,11.13
2019-04-07T22:34:55.935Z,11.12
2019-04-07T22:37:26.076Z,11.12
2019-04-07T22:39:57.189Z,11.13
2019-04-07T22:42:26.110Z,11.08
2019-04-07T22:44:56.033Z,11.08
2019-04-07T22:47:25.484Z,10.99
2019-04-07T22:49:54.610Z,11.01
2019-04-07T22:52:23.785Z,10.99
2019-04-07T22:54:52.943Z,10.97
2019-04-07T22:57:22.036Z,10.98
2019-04-07T22:59:51.175Z,11.03
2019-04-07T23:02:20.327Z,11.05
2019-04-07T23:04:50.288Z,10.96
2019-04-07T23:07:20.179Z,10.94
2019-04-07T23:09:49.622Z,10.96
2019-04-07T23:12:18.971Z,10.97
2019-04-07T23:14:48.436Z,11.03
2019-04-07T23:17:17.847Z,11.03
2019-04-07T23:19:46.982Z,10.98
2019-04-07T23:22:16.201Z,11.03
2019-04-07T23:24:45.503Z,10.97
2019-04-07T23:27:14.635Z,10.88
2019-04-07T23:29:44.369Z,10.89
2019-04-07T23:32:13.508Z,10.86
2019-04-07T23:34:43.622Z,10.88
2019-04-07T23:37:12.791Z,10.89
2019-04-07T23:39:41.958Z,10.88
2019-04-07T23:42:11.008Z,10.87
2019-04-07T23:44:40.121Z,10.95
2019-04-07T23:47:09.625Z,10.90
2019-04-07T23:49:38.920Z,10.88
2019-04-07T23:52:08.897Z,10.86
2019-04-07T23:54:38.580Z,10.84
2019-04-07T23:57:07.821Z,10.73
2019-04-07T23:59:37.186Z,10.80
